sensor_id;sensor_type;location;lat;lon;timestamp;temperature;humidity
1702;DHT22;848;48.354;10.064;2023-02-28T00:00:23;-0.30;99.90
1702;DHT22;848;48.354;10.064;2023-02-28T00:02:50;-0.30;99.90
1702;DHT22;848;48.354;10.064;2023-02-28T00:05:18;-0.20;99.90
1702;DHT22;848;48.354;10.064;2023-02-28T00:07:48;-0.30;99.90
1702;DHT22;848;48.354;10.064;2023-02-28T00:10:17;-0.30;99.90
1702;DHT22;848;48.354;10.064;2023-02-28T00:12:46;-0.30;99.90
1702;DHT22;848;48.354;10.064;2023-02-28T00:15:13;-0.20;99.90
1702;DHT22;848;48.354;10.064;2023-02-28T00:17:40;-0.20;99.90
1702;DHT22;848;48.354;10.064;2023-02-28T00:20:08;-0.20;99.90
1702;DHT22;848;48.354;10.064;2023-02-28T00:22:38;-0.20;99.90
1702;DHT22;848;48.354;10.064;2023-02-28T00:25:09;-0.20;99.90
1702;DHT22;848;48.354;10.064;2023-02-28T00:27:36;-0.20;99.90
1702;DHT22;848;48.354;10.064;2023-02-28T00:30:06;0.00;99.90
1702;DHT22;848;48.354;10.064;2023-02-28T00:32:34;0.00;99.90
1702;DHT22;848;48.354;10.064;2023-02-28T00:35:02;0.10;99.90
1702;DHT22;848;48.354;10.064;2023-02-28T00:37:29;0.00;99.90
1702;DHT22;848;48.354;10.064;2023-02-28T00:39:56;0.00;99.90
1702;DHT22;848;48.354;10.064;2023-02-28T00:42:24;-0.10;99.90
1702;DHT22;848;48.354;10.064;2023-02-28T00:44:52;-0.10;99.90
1702;DHT22;848;48.354;10.064;2023-02-28T00:47:19;-0.20;99.90
1702;DHT22;848;48.354;10.064;2023-02-28T00:49:46;-0.20;99.90
1702;DHT22;848;48.354;10.064;2023-02-28T00:52:13;-0.20;99.90
1702;DHT22;848;48.354;10.064;2023-02-28T00:54:40;-0.10;99.90
1702;DHT22;848;48.354;10.064;2023-02-28T00:57:07;-0.10;99.90
1702;DHT22;848;48.354;10.064;2023-02-28T00:59:35;-0.10;99.90
1702;DHT22;848;48.354;10.064;2023-02-28T01:02:02;-0.20;99.90
1702;DHT22;848;48.354;10.064;2023-02-28T01:04:30;-0.20;99.90
1702;DHT22;848;48.354;10.064;2023-02-28T01:06:57;-0.20;99.90
1702;DHT22;848;48.354;10.064;2023-02-28T01:09:24;-0.20;99.90
1702;DHT22;848;48.354;10.064;2023-02-28T01:11:51;-0.30;99.90
1702;DHT22;848;48.354;10.064;2023-02-28T01:14:18;-0.20;99.90
1702;DHT22;848;48.354;10.064;2023-02-28T01:16:46;-0.20;99.90
1702;DHT22;848;48.354;10.064;2023-02-28T01:19:13;-0.20;99.90
1702;DHT22;848;48.354;10.064;2023-02-28T01:21:40;-0.20;99.90
1702;DHT22;848;48.354;10.064;2023-02-28T01:24:07;-0.20;99.90
1702;DHT22;848;48.354;10.064;2023-02-28T01:26:34;-0.20;99.90
1702;DHT22;848;48.354;10.064;2023-02-28T01:29:01;-0.10;99.90
1702;DHT22;848;48.354;10.064;2023-02-28T01:31:28;0.00;99.90
1702;DHT22;848;48.354;10.064;2023-02-28T01:33:56;-0.20;99.90
1702;DHT22;848;48.354;10.064;2023-02-28T01:36:24;-0.20;99.90
1702;DHT22;848;48.354;10.064;2023-02-28T01:38:51;-0.30;99.90
1702;DHT22;848;48.354;10.064;2023-02-28T01:41:20;-0.30;99.90
1702;DHT22;848;48.354;10.064;2023-02-28T01:46:50;-0.20;99.90
1702;DHT22;848;48.354;10.064;2023-02-28T01:49:19;-0.20;99.90
1702;DHT22;848;48.354;10.064;2023-02-28T01:51:48;-0.20;99.90
1702;DHT22;848;48.354;10.064;2023-02-28T01:54:19;-0.20;99.90
1702;DHT22;848;48.354;10.064;2023-02-28T01:56:49;-0.30;99.90
1702;DHT22;848;48.354;10.064;2023-02-28T01:59:22;-0.30;99.90
1702;DHT22;848;48.354;10.064;2023-02-28T02:01:49;-0.30;99.90
1702;DHT22;848;48.354;10.064;2023-02-28T02:04:16;-0.20;99.90
1702;DHT22;848;48.354;10.064;2023-02-28T02:06:47;-0.30;99.90
1702;DHT22;848;48.354;10.064;2023-02-28T02:09:14;-0.30;99.90
1702;DHT22;848;48.354;10.064;2023-02-28T02:11:43;-0.30;99.90
1702;DHT22;848;48.354;10.064;2023-02-28T02:14:28;-0.40;99.90
1702;DHT22;848;48.354;10.064;2023-02-28T02:17:09;-0.20;99.90
1702;DHT22;848;48.354;10.064;2023-02-28T02:23:06;-0.30;99.90
1702;DHT22;848;48.354;10.064;2023-02-28T02:25:39;-0.30;99.90
1702;DHT22;848;48.354;10.064;2023-02-28T02:28:39;-0.40;99.90
1702;DHT22;848;48.354;10.064;2023-02-28T02:31:28;-0.40;99.90
1702;DHT22;848;48.354;10.064;2023-02-28T02:34:24;-0.40;99.90
1702;DHT22;848;48.354;10.064;2023-02-28T02:37:02;-0.40;99.90
1702;DHT22;848;48.354;10.064;2023-02-28T02:39:40;-0.40;99.90
1702;DHT22;848;48.354;10.064;2023-02-28T02:42:14;-0.30;99.90
1702;DHT22;848;48.354;10.064;2023-02-28T02:44:47;-0.30;99.90
1702;DHT22;848;48.354;10.064;2023-02-28T02:47:18;-0.20;99.90
1702;DHT22;848;48.354;10.064;2023-02-28T02:49:50;-0.30;99.90
1702;DHT22;848;48.354;10.064;2023-02-28T02:52:20;-0.30;99.90
1702;DHT22;848;48.354;10.064;2023-02-28T02:54:49;-0.40;99.90
1702;DHT22;848;48.354;10.064;2023-02-28T02:57:22;-0.40;99.90
1702;DHT22;848;48.354;10.064;2023-02-28T02:59:52;-0.40;99.90
1702;DHT22;848;48.354;10.064;2023-02-28T03:02:21;-0.40;99.90
1702;DHT22;848;48.354;10.064;2023-02-28T03:04:52;-0.40;99.90
1702;DHT22;848;48.354;10.064;2023-02-28T03:07:20;-0.30;99.90
1702;DHT22;848;48.354;10.064;2023-02-28T03:09:51;-0.30;99.90
1702;DHT22;848;48.354;10.064;2023-02-28T03:12:19;-0.20;99.90
1702;DHT22;848;48.354;10.064;2023-02-28T03:14:56;-0.30;99.90
1702;DHT22;848;48.354;10.064;2023-02-28T03:17:47;-0.30;99.90
1702;DHT22;848;48.354;10.064;2023-02-28T03:20:23;-0.20;99.90
1702;DHT22;848;48.354;10.064;2023-02-28T03:23:01;-0.30;99.90
1702;DHT22;848;48.354;10.064;2023-02-28T03:25:37;-0.30;99.90
1702;DHT22;848;48.354;10.064;2023-02-28T03:28:15;-0.30;99.90
1702;DHT22;848;48.354;10.064;2023-02-28T03:30:47;-0.30;99.90
1702;DHT22;848;48.354;10.064;2023-02-28T03:33:20;-0.20;99.90
1702;DHT22;848;48.354;10.064;2023-02-28T03:35:52;-0.10;99.90
1702;DHT22;848;48.354;10.064;2023-02-28T03:38:24;-0.10;99.90
1702;DHT22;848;48.354;10.064;2023-02-28T03:40:57;-0.10;99.90
1702;DHT22;848;48.354;10.064;2023-02-28T03:43:29;-0.10;99.90
1702;DHT22;848;48.354;10.064;2023-02-28T03:46:01;0.00;99.90
1702;DHT22;848;48.354;10.064;2023-02-28T03:48:33;-0.20;99.90
1702;DHT22;848;48.354;10.064;2023-02-28T03:51:03;-0.20;99.90
1702;DHT22;848;48.354;10.064;2023-02-28T03:53:35;-0.10;99.90
1702;DHT22;848;48.354;10.064;2023-02-28T03:56:07;-0.20;99.90
1702;DHT22;848;48.354;10.064;2023-02-28T03:58:39;-0.10;99.90
1702;DHT22;848;48.354;10.064;2023-02-28T04:01:10;0.00;99.90
1702;DHT22;848;48.354;10.064;2023-02-28T04:03:39;0.00;99.90
1702;DHT22;848;48.354;10.064;2023-02-28T04:06:12;0.00;99.90
1702;DHT22;848;48.354;10.064;2023-02-28T04:08:40;0.00;99.90
1702;DHT22;848;48.354;10.064;2023-02-28T04:11:16;0.00;99.90
1702;DHT22;848;48.354;10.064;2023-02-28T04:13:44;0.00;99.90
1702;DHT22;848;48.354;10.064;2023-02-28T04:16:15;0.00;99.90
1702;DHT22;848;48.354;10.064;2023-02-28T04:18:42;-0.10;99.90
1702;DHT22;848;48.354;10.064;2023-02-28T04:21:11;0.00;99.90
1702;DHT22;848;48.354;10.064;2023-02-28T04:23:38;0.10;99.90
1702;DHT22;848;48.354;10.064;2023-02-28T04:26:05;0.10;99.90
1702;DHT22;848;48.354;10.064;2023-02-28T04:28:32;0.00;99.90
1702;DHT22;848;48.354;10.064;2023-02-28T04:31:02;0.00;99.90
1702;DHT22;848;48.354;10.064;2023-02-28T04:33:31;0.00;99.90
1702;DHT22;848;48.354;10.064;2023-02-28T04:35:59;0.00;99.90
1702;DHT22;848;48.354;10.064;2023-02-28T04:38:29;0.00;99.90
1702;DHT22;848;48.354;10.064;2023-02-28T04:40:59;0.00;99.90
1702;DHT22;848;48.354;10.064;2023-02-28T04:43:27;0.00;99.90
1702;DHT22;848;48.354;10.064;2023-02-28T04:45:54;0.00;99.90
1702;DHT22;848;48.354;10.064;2023-02-28T04:48:22;0.00;99.90
1702;DHT22;848;48.354;10.064;2023-02-28T04:50:50;0.00;99.90
1702;DHT22;848;48.354;10.064;2023-02-28T04:53:17;0.10;99.90
1702;DHT22;848;48.354;10.064;2023-02-28T04:55:45;0.10;99.90
1702;DHT22;848;48.354;10.064;2023-02-28T04:58:12;0.00;99.90
1702;DHT22;848;48.354;10.064;2023-02-28T05:00:39;0.10;99.90
1702;DHT22;848;48.354;10.064;2023-02-28T05:03:06;0.20;99.90
1702;DHT22;848;48.354;10.064;2023-02-28T05:05:33;0.10;99.90
1702;DHT22;848;48.354;10.064;2023-02-28T05:08:00;0.00;99.90
1702;DHT22;848;48.354;10.064;2023-02-28T05:10:27;0.00;99.90
1702;DHT22;848;48.354;10.064;2023-02-28T05:12:55;0.00;99.90
1702;DHT22;848;48.354;10.064;2023-02-28T05:15:22;0.00;99.90
1702;DHT22;848;48.354;10.064;2023-02-28T05:17:49;0.00;99.90
1702;DHT22;848;48.354;10.064;2023-02-28T05:20:16;0.00;99.90
1702;DHT22;848;48.354;10.064;2023-02-28T05:22:46;0.00;99.90
1702;DHT22;848;48.354;10.064;2023-02-28T05:25:16;0.00;99.90
1702;DHT22;848;48.354;10.064;2023-02-28T05:27:43;0.10;99.90
1702;DHT22;848;48.354;10.064;2023-02-28T05:30:12;0.00;99.90
1702;DHT22;848;48.354;10.064;2023-02-28T05:32:40;0.00;99.90
1702;DHT22;848;48.354;10.064;2023-02-28T05:35:09;0.00;99.90
1702;DHT22;848;48.354;10.064;2023-02-28T05:37:37;0.00;99.90
1702;DHT22;848;48.354;10.064;2023-02-28T05:40:06;0.00;99.90
1702;DHT22;848;48.354;10.064;2023-02-28T05:42:35;0.00;99.90
1702;DHT22;848;48.354;10.064;2023-02-28T05:45:02;-0.10;99.90
1702;DHT22;848;48.354;10.064;2023-02-28T05:47:31;-0.10;99.90
1702;DHT22;848;48.354;10.064;2023-02-28T05:49:58;-0.10;99.90
1702;DHT22;848;48.354;10.064;2023-02-28T05:52:25;0.00;99.90
1702;DHT22;848;48.354;10.064;2023-02-28T05:54:52;0.00;99.90
1702;DHT22;848;48.354;10.064;2023-02-28T05:57:19;-0.10;99.90
1702;DHT22;848;48.354;10.064;2023-02-28T05:59:46;-0.10;99.90
1702;DHT22;848;48.354;10.064;2023-02-28T06:02:15;-0.10;99.90
1702;DHT22;848;48.354;10.064;2023-02-28T06:04:44;-0.10;99.90
1702;DHT22;848;48.354;10.064;2023-02-28T06:07:11;-0.20;99.90
1702;DHT22;848;48.354;10.064;2023-02-28T06:09:38;-0.20;99.90
1702;DHT22;848;48.354;10.064;2023-02-28T06:12:06;-0.20;99.90
1702;DHT22;848;48.354;10.064;2023-02-28T06:14:35;-0.20;99.90
1702;DHT22;848;48.354;10.064;2023-02-28T06:17:03;-0.20;99.90
1702;DHT22;848;48.354;10.064;2023-02-28T06:19:30;-0.20;99.90
1702;DHT22;848;48.354;10.064;2023-02-28T06:22:00;-0.10;99.90
1702;DHT22;848;48.354;10.064;2023-02-28T06:24:27;-0.10;99.90
1702;DHT22;848;48.354;10.064;2023-02-28T06:26:54;-0.20;99.90
1702;DHT22;848;48.354;10.064;2023-02-28T06:29:21;-0.10;99.90
1702;DHT22;848;48.354;10.064;2023-02-28T06:31:48;-0.10;99.90
1702;DHT22;848;48.354;10.064;2023-02-28T06:34:16;-0.20;99.90
1702;DHT22;848;48.354;10.064;2023-02-28T06:36:43;-0.10;99.90
1702;DHT22;848;48.354;10.064;2023-02-28T06:39:11;-0.20;99.90
1702;DHT22;848;48.354;10.064;2023-02-28T06:41:38;-0.30;99.90
1702;DHT22;848;48.354;10.064;2023-02-28T06:44:09;-0.30;99.90
1702;DHT22;848;48.354;10.064;2023-02-28T06:46:40;-0.20;99.90
1702;DHT22;848;48.354;10.064;2023-02-28T06:49:07;-0.30;99.90
1702;DHT22;848;48.354;10.064;2023-02-28T06:51:35;-0.40;99.90
1702;DHT22;848;48.354;10.064;2023-02-28T06:54:03;-0.50;99.90
1702;DHT22;848;48.354;10.064;2023-02-28T06:56:31;-0.40;99.90
1702;DHT22;848;48.354;10.064;2023-02-28T06:58:58;-0.40;99.90
1702;DHT22;848;48.354;10.064;2023-02-28T07:01:25;-0.40;99.90
1702;DHT22;848;48.354;10.064;2023-02-28T07:03:53;-0.30;99.90
1702;DHT22;848;48.354;10.064;2023-02-28T07:06:21;-0.40;99.90
1702;DHT22;848;48.354;10.064;2023-02-28T07:08:49;-0.20;99.90
1702;DHT22;848;48.354;10.064;2023-02-28T07:11:16;-0.20;99.90
1702;DHT22;848;48.354;10.064;2023-02-28T07:13:45;-0.30;99.90
1702;DHT22;848;48.354;10.064;2023-02-28T07:16:13;-0.30;99.90
1702;DHT22;848;48.354;10.064;2023-02-28T07:18:40;-0.20;99.90
1702;DHT22;848;48.354;10.064;2023-02-28T07:21:09;-0.30;99.90
1702;DHT22;848;48.354;10.064;2023-02-28T07:23:36;-0.40;99.90
1702;DHT22;848;48.354;10.064;2023-02-28T07:26:11;-0.30;99.90
1702;DHT22;848;48.354;10.064;2023-02-28T07:28:40;-0.20;99.90
1702;DHT22;848;48.354;10.064;2023-02-28T07:31:10;-0.20;99.90
1702;DHT22;848;48.354;10.064;2023-02-28T07:33:37;-0.20;99.90
1702;DHT22;848;48.354;10.064;2023-02-28T07:36:06;-0.10;99.90
1702;DHT22;848;48.354;10.064;2023-02-28T07:38:34;-0.10;99.90
1702;DHT22;848;48.354;10.064;2023-02-28T07:41:01;-0.30;99.90
1702;DHT22;848;48.354;10.064;2023-02-28T07:43:30;-0.20;99.90
1702;DHT22;848;48.354;10.064;2023-02-28T07:46:01;-0.20;99.90
1702;DHT22;848;48.354;10.064;2023-02-28T07:48:30;-0.10;99.90
1702;DHT22;848;48.354;10.064;2023-02-28T07:50:57;-0.10;99.90
1702;DHT22;848;48.354;10.064;2023-02-28T07:53:24;0.20;99.90
1702;DHT22;848;48.354;10.064;2023-02-28T07:55:55;-0.10;99.90
1702;DHT22;848;48.354;10.064;2023-02-28T07:58:22;-0.10;99.90
1702;DHT22;848;48.354;10.064;2023-02-28T08:00:49;0.00;99.90
1702;DHT22;848;48.354;10.064;2023-02-28T08:03:16;0.00;99.90
1702;DHT22;848;48.354;10.064;2023-02-28T08:05:45;-0.20;99.90
1702;DHT22;848;48.354;10.064;2023-02-28T08:08:11;-0.10;99.90
1702;DHT22;848;48.354;10.064;2023-02-28T08:10:38;0.00;99.90
1702;DHT22;848;48.354;10.064;2023-02-28T08:13:05;0.00;99.90
1702;DHT22;848;48.354;10.064;2023-02-28T08:15:32;-0.10;99.90
1702;DHT22;848;48.354;10.064;2023-02-28T08:17:59;-0.10;99.90
1702;DHT22;848;48.354;10.064;2023-02-28T08:20:26;0.00;99.90
1702;DHT22;848;48.354;10.064;2023-02-28T08:22:54;0.30;99.90
1702;DHT22;848;48.354;10.064;2023-02-28T08:25:21;0.10;99.90
1702;DHT22;848;48.354;10.064;2023-02-28T08:27:50;0.20;99.90
1702;DHT22;848;48.354;10.064;2023-02-28T08:30:18;0.20;99.90
1702;DHT22;848;48.354;10.064;2023-02-28T08:32:45;0.20;99.90
1702;DHT22;848;48.354;10.064;2023-02-28T08:35:12;0.20;99.90
1702;DHT22;848;48.354;10.064;2023-02-28T08:37:39;0.10;99.90
1702;DHT22;848;48.354;10.064;2023-02-28T08:40:09;0.20;99.90
1702;DHT22;848;48.354;10.064;2023-02-28T08:42:36;0.20;99.90
1702;DHT22;848;48.354;10.064;2023-02-28T08:45:04;0.40;99.90
1702;DHT22;848;48.354;10.064;2023-02-28T08:47:31;0.20;99.90
1702;DHT22;848;48.354;10.064;2023-02-28T08:49:58;0.00;99.90
1702;DHT22;848;48.354;10.064;2023-02-28T08:52:25;-0.10;99.90
1702;DHT22;848;48.354;10.064;2023-02-28T08:54:51;-0.10;99.90
1702;DHT22;848;48.354;10.064;2023-02-28T08:57:20;0.00;99.90
1702;DHT22;848;48.354;10.064;2023-02-28T08:59:47;0.10;99.90
1702;DHT22;848;48.354;10.064;2023-02-28T09:02:14;0.10;99.90
1702;DHT22;848;48.354;10.064;2023-02-28T09:04:41;0.00;99.90
1702;DHT22;848;48.354;10.064;2023-02-28T09:07:10;-0.10;99.90
1702;DHT22;848;48.354;10.064;2023-02-28T09:09:37;0.00;99.90
1702;DHT22;848;48.354;10.064;2023-02-28T09:12:20;0.00;99.90
1702;DHT22;848;48.354;10.064;2023-02-28T09:14:47;0.10;99.90
1702;DHT22;848;48.354;10.064;2023-02-28T09:17:14;0.10;99.90
1702;DHT22;848;48.354;10.064;2023-02-28T09:19:41;0.10;99.90
1702;DHT22;848;48.354;10.064;2023-02-28T09:22:09;0.30;99.90
1702;DHT22;848;48.354;10.064;2023-02-28T09:24:36;0.40;99.90
1702;DHT22;848;48.354;10.064;2023-02-28T09:27:03;0.30;99.90
1702;DHT22;848;48.354;10.064;2023-02-28T09:29:33;0.20;99.90
1702;DHT22;848;48.354;10.064;2023-02-28T09:32:01;0.20;99.90
1702;DHT22;848;48.354;10.064;2023-02-28T09:34:28;0.20;99.90
1702;DHT22;848;48.354;10.064;2023-02-28T09:36:58;0.20;99.90
1702;DHT22;848;48.354;10.064;2023-02-28T09:39:25;0.20;99.90
1702;DHT22;848;48.354;10.064;2023-02-28T09:41:54;0.40;99.90
1702;DHT22;848;48.354;10.064;2023-02-28T09:44:26;0.30;99.90
1702;DHT22;848;48.354;10.064;2023-02-28T09:46:59;0.40;99.90
1702;DHT22;848;48.354;10.064;2023-02-28T09:49:34;0.40;99.90
1702;DHT22;848;48.354;10.064;2023-02-28T09:52:07;0.40;99.90
1702;DHT22;848;48.354;10.064;2023-02-28T09:54:37;0.60;99.90
1702;DHT22;848;48.354;10.064;2023-02-28T09:57:08;0.70;99.90
1702;DHT22;848;48.354;10.064;2023-02-28T09:59:48;0.70;99.90
1702;DHT22;848;48.354;10.064;2023-02-28T10:02:38;0.60;99.90
1702;DHT22;848;48.354;10.064;2023-02-28T10:05:08;0.60;99.90
1702;DHT22;848;48.354;10.064;2023-02-28T10:07:53;0.50;99.90
1702;DHT22;848;48.354;10.064;2023-02-28T10:10:26;0.60;99.90
1702;DHT22;848;48.354;10.064;2023-02-28T10:12:56;0.60;99.90
1702;DHT22;848;48.354;10.064;2023-02-28T10:15:26;0.60;99.90
1702;DHT22;848;48.354;10.064;2023-02-28T10:17:58;0.60;99.90
1702;DHT22;848;48.354;10.064;2023-02-28T10:20:28;0.60;99.90
1702;DHT22;848;48.354;10.064;2023-02-28T10:23:09;0.50;99.90
1702;DHT22;848;48.354;10.064;2023-02-28T10:25:38;0.70;99.90
1702;DHT22;848;48.354;10.064;2023-02-28T10:28:11;0.80;99.90
1702;DHT22;848;48.354;10.064;2023-02-28T10:30:41;0.90;99.90
1702;DHT22;848;48.354;10.064;2023-02-28T10:33:18;0.90;99.90
1702;DHT22;848;48.354;10.064;2023-02-28T10:35:45;0.80;99.90
1702;DHT22;848;48.354;10.064;2023-02-28T10:38:18;0.80;99.90
1702;DHT22;848;48.354;10.064;2023-02-28T10:40:46;0.90;99.90
1702;DHT22;848;48.354;10.064;2023-02-28T10:43:21;0.70;99.90
1702;DHT22;848;48.354;10.064;2023-02-28T10:46:01;0.60;99.90
1702;DHT22;848;48.354;10.064;2023-02-28T10:48:39;0.60;99.90
1702;DHT22;848;48.354;10.064;2023-02-28T10:51:09;0.70;99.90
1702;DHT22;848;48.354;10.064;2023-02-28T10:53:47;0.70;99.90
1702;DHT22;848;48.354;10.064;2023-02-28T10:56:20;1.00;99.90
1702;DHT22;848;48.354;10.064;2023-02-28T10:58:54;1.00;99.90
1702;DHT22;848;48.354;10.064;2023-02-28T11:01:23;0.80;99.90
1702;DHT22;848;48.354;10.064;2023-02-28T11:03:52;0.70;99.90
1702;DHT22;848;48.354;10.064;2023-02-28T11:06:21;0.80;99.90
1702;DHT22;848;48.354;10.064;2023-02-28T11:08:51;1.00;99.90
1702;DHT22;848;48.354;10.064;2023-02-28T11:11:20;1.10;99.90
1702;DHT22;848;48.354;10.064;2023-02-28T11:13:51;1.30;99.90
1702;DHT22;848;48.354;10.064;2023-02-28T11:16:19;1.30;99.90
1702;DHT22;848;48.354;10.064;2023-02-28T11:18:49;1.30;99.90
1702;DHT22;848;48.354;10.064;2023-02-28T11:21:21;1.40;99.90
1702;DHT22;848;48.354;10.064;2023-02-28T11:24:00;1.50;99.90
1702;DHT22;848;48.354;10.064;2023-02-28T11:26:39;1.50;99.90
1702;DHT22;848;48.354;10.064;2023-02-28T11:29:16;1.60;99.90
1702;DHT22;848;48.354;10.064;2023-02-28T11:34:31;1.70;99.90
1702;DHT22;848;48.354;10.064;2023-02-28T11:37:01;1.80;99.90
1702;DHT22;848;48.354;10.064;2023-02-28T11:39:32;1.90;99.90
1702;DHT22;848;48.354;10.064;2023-02-28T11:42:24;1.70;99.90
1702;DHT22;848;48.354;10.064;2023-02-28T11:45:03;1.70;99.90
1702;DHT22;848;48.354;10.064;2023-02-28T11:47:36;1.80;99.90
1702;DHT22;848;48.354;10.064;2023-02-28T11:50:25;1.80;99.90
1702;DHT22;848;48.354;10.064;2023-02-28T11:52:57;2.00;99.90
1702;DHT22;848;48.354;10.064;2023-02-28T11:55:32;2.00;99.90
1702;DHT22;848;48.354;10.064;2023-02-28T11:58:20;1.90;99.90
1702;DHT22;848;48.354;10.064;2023-02-28T12:01:01;2.10;99.90
1702;DHT22;848;48.354;10.064;2023-02-28T12:03:38;2.10;99.90
1702;DHT22;848;48.354;10.064;2023-02-28T12:06:16;2.10;99.90
1702;DHT22;848;48.354;10.064;2023-02-28T12:08:57;2.20;99.90
1702;DHT22;848;48.354;10.064;2023-02-28T12:11:45;2.20;99.90
1702;DHT22;848;48.354;10.064;2023-02-28T12:14:46;2.20;99.90
1702;DHT22;848;48.354;10.064;2023-02-28T12:17:26;2.30;99.90
1702;DHT22;848;48.354;10.064;2023-02-28T12:20:05;2.30;99.90
1702;DHT22;848;48.354;10.064;2023-02-28T12:22:40;2.20;99.90
1702;DHT22;848;48.354;10.064;2023-02-28T12:28:17;2.40;99.90
1702;DHT22;848;48.354;10.064;2023-02-28T12:30:51;2.30;99.90
1702;DHT22;848;48.354;10.064;2023-02-28T12:33:24;2.40;99.90
1702;DHT22;848;48.354;10.064;2023-02-28T12:35:54;2.50;99.90
1702;DHT22;848;48.354;10.064;2023-02-28T12:38:23;2.60;99.90
1702;DHT22;848;48.354;10.064;2023-02-28T12:40:54;2.70;99.90
1702;DHT22;848;48.354;10.064;2023-02-28T12:43:29;2.80;99.90
1702;DHT22;848;48.354;10.064;2023-02-28T12:46:00;2.90;99.90
1702;DHT22;848;48.354;10.064;2023-02-28T12:48:36;2.90;99.90
1702;DHT22;848;48.354;10.064;2023-02-28T12:51:06;2.90;99.90
1702;DHT22;848;48.354;10.064;2023-02-28T12:53:46;2.90;99.90
1702;DHT22;848;48.354;10.064;2023-02-28T12:56:19;2.90;99.90
1702;DHT22;848;48.354;10.064;2023-02-28T12:58:54;3.10;99.90
1702;DHT22;848;48.354;10.064;2023-02-28T13:01:42;3.00;99.90
1702;DHT22;848;48.354;10.064;2023-02-28T13:04:32;3.10;99.90
1702;DHT22;848;48.354;10.064;2023-02-28T13:07:19;3.30;99.90
1702;DHT22;848;48.354;10.064;2023-02-28T13:09:52;3.30;99.90
1702;DHT22;848;48.354;10.064;2023-02-28T13:12:20;3.40;99.90
1702;DHT22;848;48.354;10.064;2023-02-28T13:14:50;3.50;99.90
1702;DHT22;848;48.354;10.064;2023-02-28T13:17:19;3.40;99.90
1702;DHT22;848;48.354;10.064;2023-02-28T13:19:57;3.40;99.90
1702;DHT22;848;48.354;10.064;2023-02-28T13:22:40;3.30;99.90
1702;DHT22;848;48.354;10.064;2023-02-28T13:28:09;3.50;99.90
1702;DHT22;848;48.354;10.064;2023-02-28T13:31:01;3.50;99.90
1702;DHT22;848;48.354;10.064;2023-02-28T13:33:30;3.60;99.90
1702;DHT22;848;48.354;10.064;2023-02-28T13:36:25;3.70;99.90
1702;DHT22;848;48.354;10.064;2023-02-28T13:38:55;3.60;99.90
1702;DHT22;848;48.354;10.064;2023-02-28T13:41:45;3.70;99.90
1702;DHT22;848;48.354;10.064;2023-02-28T13:44:14;3.60;99.90
1702;DHT22;848;48.354;10.064;2023-02-28T13:47:21;3.50;99.90
1702;DHT22;848;48.354;10.064;2023-02-28T13:49:51;3.60;99.90
1702;DHT22;848;48.354;10.064;2023-02-28T13:52:21;3.60;99.90
1702;DHT22;848;48.354;10.064;2023-02-28T13:55:01;3.60;99.90
1702;DHT22;848;48.354;10.064;2023-02-28T13:57:47;3.60;99.90
1702;DHT22;848;48.354;10.064;2023-02-28T14:00:23;3.70;99.90
1702;DHT22;848;48.354;10.064;2023-02-28T14:03:07;4.00;99.90
1702;DHT22;848;48.354;10.064;2023-02-28T14:05:37;3.90;99.90
1702;DHT22;848;48.354;10.064;2023-02-28T14:08:08;3.90;99.90
1702;DHT22;848;48.354;10.064;2023-02-28T14:10:43;4.00;99.90
1702;DHT22;848;48.354;10.064;2023-02-28T14:13:39;4.10;99.90
1702;DHT22;848;48.354;10.064;2023-02-28T14:16:11;4.20;99.90
1702;DHT22;848;48.354;10.064;2023-02-28T14:18:42;4.00;99.90
1702;DHT22;848;48.354;10.064;2023-02-28T14:21:21;3.90;99.90
1702;DHT22;848;48.354;10.064;2023-02-28T14:24:22;4.00;99.90
1702;DHT22;848;48.354;10.064;2023-02-28T14:27:11;4.10;99.90
1702;DHT22;848;48.354;10.064;2023-02-28T14:32:37;4.20;99.90
1702;DHT22;848;48.354;10.064;2023-02-28T14:35:20;4.10;99.90
1702;DHT22;848;48.354;10.064;2023-02-28T14:37:49;4.10;99.90
1702;DHT22;848;48.354;10.064;2023-02-28T14:40:20;4.10;99.90
1702;DHT22;848;48.354;10.064;2023-02-28T14:42:54;4.20;99.90
1702;DHT22;848;48.354;10.064;2023-02-28T14:45:22;4.30;99.90
1702;DHT22;848;48.354;10.064;2023-02-28T14:47:50;4.10;99.90
1702;DHT22;848;48.354;10.064;2023-02-28T14:50:20;4.30;99.90
1702;DHT22;848;48.354;10.064;2023-02-28T14:52:50;4.40;99.90
1702;DHT22;848;48.354;10.064;2023-02-28T14:55:20;4.40;99.90
1702;DHT22;848;48.354;10.064;2023-02-28T14:57:53;4.30;99.90
1702;DHT22;848;48.354;10.064;2023-02-28T15:00:23;4.10;99.90
1702;DHT22;848;48.354;10.064;2023-02-28T15:02:51;4.10;99.90
1702;DHT22;848;48.354;10.064;2023-02-28T15:05:24;4.20;99.90
1702;DHT22;848;48.354;10.064;2023-02-28T15:08:02;4.30;99.90
1702;DHT22;848;48.354;10.064;2023-02-28T15:10:29;4.30;99.90
1702;DHT22;848;48.354;10.064;2023-02-28T15:12:58;4.20;99.90
1702;DHT22;848;48.354;10.064;2023-02-28T15:15:28;4.10;99.90
1702;DHT22;848;48.354;10.064;2023-02-28T15:18:03;4.20;99.90
1702;DHT22;848;48.354;10.064;2023-02-28T15:20:43;4.30;99.90
1702;DHT22;848;48.354;10.064;2023-02-28T15:23:11;4.30;99.90
1702;DHT22;848;48.354;10.064;2023-02-28T15:25:40;4.10;99.90
1702;DHT22;848;48.354;10.064;2023-02-28T15:28:13;4.20;99.90
1702;DHT22;848;48.354;10.064;2023-02-28T15:30:55;4.20;99.90
1702;DHT22;848;48.354;10.064;2023-02-28T15:33:24;4.10;99.90
1702;DHT22;848;48.354;10.064;2023-02-28T15:36:05;4.10;99.90
1702;DHT22;848;48.354;10.064;2023-02-28T15:38:35;4.00;99.90
1702;DHT22;848;48.354;10.064;2023-02-28T15:41:02;3.90;99.90
1702;DHT22;848;48.354;10.064;2023-02-28T15:43:34;3.90;99.90
1702;DHT22;848;48.354;10.064;2023-02-28T15:46:03;3.90;99.90
1702;DHT22;848;48.354;10.064;2023-02-28T15:48:32;3.80;99.90
1702;DHT22;848;48.354;10.064;2023-02-28T15:51:06;3.90;99.90
1702;DHT22;848;48.354;10.064;2023-02-28T15:53:36;3.80;99.90
1702;DHT22;848;48.354;10.064;2023-02-28T15:56:14;3.90;99.90
1702;DHT22;848;48.354;10.064;2023-02-28T15:58:44;3.80;99.90
1702;DHT22;848;48.354;10.064;2023-02-28T16:01:20;3.80;99.90
1702;DHT22;848;48.354;10.064;2023-02-28T16:03:49;3.80;99.90
1702;DHT22;848;48.354;10.064;2023-02-28T16:06:31;3.80;99.90
1702;DHT22;848;48.354;10.064;2023-02-28T16:08:59;3.80;99.90
1702;DHT22;848;48.354;10.064;2023-02-28T16:11:26;3.90;99.90
1702;DHT22;848;48.354;10.064;2023-02-28T16:13:53;3.90;99.90
1702;DHT22;848;48.354;10.064;2023-02-28T16:16:22;3.80;99.90
1702;DHT22;848;48.354;10.064;2023-02-28T16:18:49;3.80;99.90
1702;DHT22;848;48.354;10.064;2023-02-28T16:21:16;3.80;99.90
1702;DHT22;848;48.354;10.064;2023-02-28T16:23:44;3.70;99.90
1702;DHT22;848;48.354;10.064;2023-02-28T16:26:18;3.70;99.90
1702;DHT22;848;48.354;10.064;2023-02-28T16:28:46;3.70;99.90
1702;DHT22;848;48.354;10.064;2023-02-28T16:31:13;3.70;99.90
1702;DHT22;848;48.354;10.064;2023-02-28T16:33:42;3.70;99.90
1702;DHT22;848;48.354;10.064;2023-02-28T16:36:14;3.60;99.90
1702;DHT22;848;48.354;10.064;2023-02-28T16:38:41;3.60;99.90
1702;DHT22;848;48.354;10.064;2023-02-28T16:41:12;3.60;99.90
1702;DHT22;848;48.354;10.064;2023-02-28T16:43:44;3.50;99.90
1702;DHT22;848;48.354;10.064;2023-02-28T16:46:11;3.50;99.90
1702;DHT22;848;48.354;10.064;2023-02-28T16:48:39;3.50;99.90
1702;DHT22;848;48.354;10.064;2023-02-28T16:51:11;3.60;99.90
1702;DHT22;848;48.354;10.064;2023-02-28T16:53:38;3.50;99.90
1702;DHT22;848;48.354;10.064;2023-02-28T16:56:06;3.50;99.90